Time;durP1;ratioP1;P1;durP2;ratioP2;P2;SDS_P1;SDS_P2;PMS_P1;PMS_P2;Temp;Humidity;BMP_temperature;BMP_pressure;BME280_temperature;BME280_humidity;BME280_pressure;Samples;Min_cycle;Max_cycle;Signal;HPM_P1;HPM_P2
2022/10/21 00:01:37;;;;;;;22.27;14.77;;;11.90;99.90;;;;;;5074289;28;20447;-66
2022/10/21 00:04:04;;;;;;;24.50;15.63;;;11.80;99.90;;;;;;5073802;28;20467;-64
2022/10/21 00:06:31;;;;;;;20.23;14.77;;;11.80;99.90;;;;;;5073781;28;20443;-65
2022/10/21 00:08:58;;;;;;;18.70;14.20;;;11.90;99.90;;;;;;5073490;28;20450;-65
2022/10/21 00:11:24;;;;;;;20.03;14.70;;;11.90;99.90;;;;;;5073367;28;20451;-65
2022/10/21 00:13:51;;;;;;;21.00;15.40;;;11.80;99.90;;;;;;5073374;28;20463;-64
2022/10/21 00:16:19;;;;;;;20.33;14.30;;;11.80;99.90;;;;;;5073543;28;20486;-64
2022/10/21 00:18:48;;;;;;;20.80;14.57;;;11.80;99.90;;;;;;5073440;28;20441;-65
2022/10/21 00:21:16;;;;;;;21.80;15.20;;;11.80;99.90;;;;;;5073198;28;20529;-65
2022/10/21 00:23:43;;;;;;;18.73;15.13;;;11.80;99.90;;;;;;5073398;28;20463;-64
2022/10/21 00:26:10;;;;;;;27.13;16.40;;;11.90;99.90;;;;;;5075627;28;20442;-64
2022/10/21 00:28:37;;;;;;;21.20;14.60;;;11.90;99.90;;;;;;5077328;28;20450;-65
2022/10/21 00:31:07;;;;;;;25.10;15.07;;;11.90;99.90;;;;;;5077240;28;20469;-65
2022/10/21 00:33:33;;;;;;;21.13;15.20;;;11.90;99.90;;;;;;5077115;28;20800;-65
2022/10/21 00:36:02;;;;;;;22.10;15.57;;;11.90;99.90;;;;;;5077436;28;20474;-65
2022/10/21 00:38:29;;;;;;;20.00;14.63;;;11.90;99.90;;;;;;5077075;28;20806;-65
2022/10/21 00:40:56;;;;;;;18.90;13.70;;;12.00;99.90;;;;;;5076954;28;20451;-65
2022/10/21 00:43:23;;;;;;;19.37;13.70;;;12.00;99.90;;;;;;5076566;28;20975;-64
2022/10/21 00:45:53;;;;;;;23.27;15.43;;;12.00;99.90;;;;;;5076851;28;20439;-65
2022/10/21 00:48:27;;;;;;;24.87;15.73;;;12.00;99.90;;;;;;5076820;28;20848;-65
2022/10/21 00:50:57;;;;;;;20.60;14.03;;;12.00;99.90;;;;;;5076789;28;20432;-64
2022/10/21 00:53:26;;;;;;;20.20;14.53;;;12.10;99.90;;;;;;5076094;28;20477;-64
2022/10/21 00:55:56;;;;;;;22.10;14.30;;;12.10;99.90;;;;;;5076417;28;20501;-65
2022/10/21 00:58:26;;;;;;;19.33;14.10;;;12.10;99.90;;;;;;5076652;28;20442;-64
2022/10/21 01:00:55;;;;;;;21.37;14.83;;;12.20;99.90;;;;;;5076125;28;20947;-64
2022/10/21 01:03:23;;;;;;;19.70;13.70;;;12.20;99.90;;;;;;5076056;28;20463;-65
2022/10/21 01:05:51;;;;;;;18.73;14.43;;;12.30;99.90;;;;;;5076406;28;20439;-64
2022/10/21 01:08:19;;;;;;;15.80;13.43;;;12.30;99.90;;;;;;5077187;28;20455;-65
2022/10/21 01:10:47;;;;;;;22.00;14.17;;;12.40;99.90;;;;;;5075986;28;20447;-65
2022/10/21 01:13:21;;;;;;;18.07;13.67;;;12.40;99.90;;;;;;5076500;28;20467;-65
2022/10/21 01:15:55;;;;;;;20.23;13.47;;;12.50;99.90;;;;;;5076137;28;20488;-65
2022/10/21 01:18:28;;;;;;;17.57;14.00;;;12.50;99.90;;;;;;5076241;28;20431;-65
2022/10/21 01:21:07;;;;;;;16.00;12.30;;;12.50;99.90;;;;;;5075900;28;20427;-65
2022/10/21 01:24:16;;;;;;;16.37;12.27;;;12.50;99.90;;;;;;5076034;28;20469;-65
2022/10/21 01:27:13;;;;;;;16.60;12.90;;;12.50;99.90;;;;;;5076076;28;20431;-65
2022/10/21 01:30:11;;;;;;;16.60;12.17;;;12.50;99.90;;;;;;5076070;28;20447;-64
2022/10/21 01:33:09;;;;;;;15.40;12.03;;;12.50;99.90;;;;;;5076608;28;20443;-64
2022/10/21 01:35:43;;;;;;;13.27;11.87;;;12.50;99.90;;;;;;5075808;28;20486;-65
2022/10/21 01:38:17;;;;;;;21.30;13.43;;;12.60;99.90;;;;;;5074877;28;20837;-65
2022/10/21 01:40:52;;;;;;;18.10;12.33;;;12.60;99.90;;;;;;5075850;28;20431;-64
2022/10/21 01:43:28;;;;;;;16.83;12.70;;;12.60;99.90;;;;;;5075832;28;20466;-64
2022/10/21 01:46:00;;;;;;;18.73;12.50;;;12.60;99.90;;;;;;5076033;28;20427;-65
2022/10/21 01:48:32;;;;;;;17.70;13.57;;;12.60;99.90;;;;;;5076296;28;20435;-64
2022/10/21 01:51:01;;;;;;;15.87;12.90;;;12.60;99.90;;;;;;5076380;28;20439;-64
2022/10/21 01:53:31;;;;;;;17.07;12.70;;;12.60;99.90;;;;;;5075684;28;20493;-65
2022/10/21 01:55:59;;;;;;;16.07;12.70;;;12.60;99.90;;;;;;5076920;28;20482;-67
2022/10/21 01:58:30;;;;;;;15.57;12.77;;;12.60;99.90;;;;;;5075315;28;20450;-67
2022/10/21 02:01:00;;;;;;;16.73;11.47;;;12.60;99.90;;;;;;5075489;28;20419;-67
2022/10/21 02:03:32;;;;;;;14.03;11.97;;;12.60;99.90;;;;;;5075576;28;20471;-67
2022/10/21 02:05:59;;;;;;;15.60;11.60;;;12.60;99.90;;;;;;5075463;28;20447;-67
2022/10/21 02:08:26;;;;;;;13.77;11.80;;;12.60;99.90;;;;;;5075274;28;20454;-67
2022/10/21 02:10:58;;;;;;;13.00;11.50;;;12.60;99.90;;;;;;5075345;28;20443;-67
2022/10/21 02:13:29;;;;;;;14.57;11.90;;;12.60;99.90;;;;;;5075122;28;20470;-67
2022/10/21 02:15:59;;;;;;;15.17;11.27;;;12.60;99.90;;;;;;5074775;28;20997;-67
2022/10/21 02:18:28;;;;;;;13.53;11.20;;;12.60;99.90;;;;;;5074885;28;20955;-67
2022/10/21 02:20:57;;;;;;;12.23;10.93;;;12.70;99.90;;;;;;5075031;28;20450;-67
2022/10/21 02:23:33;;;;;;;14.67;12.33;;;12.70;99.90;;;;;;5074540;28;20998;-67
2022/10/21 02:26:00;;;;;;;12.90;10.90;;;12.70;99.90;;;;;;5074955;28;20428;-67
2022/10/21 02:28:27;;;;;;;13.90;11.63;;;12.70;99.90;;;;;;5074647;28;20443;-67
2022/10/21 02:31:03;;;;;;;12.53;11.23;;;12.60;99.90;;;;;;5074622;28;20958;-67
2022/10/21 02:33:42;;;;;;;13.67;11.03;;;12.60;99.90;;;;;;5080109;28;20463;-67
2022/10/21 02:36:16;;;;;;;14.30;10.70;;;12.60;99.90;;;;;;5082221;28;20474;-67
2022/10/21 02:38:47;;;;;;;12.93;11.33;;;12.60;99.90;;;;;;5082711;28;20423;-66
2022/10/21 02:41:20;;;;;;;12.10;10.43;;;12.60;99.90;;;;;;5082145;28;20427;-67
2022/10/21 02:43:50;;;;;;;12.43;10.33;;;12.50;99.90;;;;;;5078288;28;20819;-66
2022/10/21 02:46:17;;;;;;;12.70;11.10;;;12.50;99.90;;;;;;5080222;28;20463;-66
2022/10/21 02:48:47;;;;;;;14.57;11.27;;;12.50;99.90;;;;;;5081698;28;20439;-66
2022/10/21 02:51:14;;;;;;;15.57;10.83;;;12.50;99.90;;;;;;5083048;28;20444;-66
2022/10/21 02:53:42;;;;;;;13.00;10.90;;;12.50;99.90;;;;;;5082481;28;20477;-66
2022/10/21 02:56:09;;;;;;;13.87;11.03;;;12.50;99.90;;;;;;5082449;28;20479;-66
2022/10/21 02:58:36;;;;;;;18.57;11.30;;;12.50;99.90;;;;;;5081841;28;20447;-66
2022/10/21 03:01:03;;;;;;;12.93;10.67;;;12.50;99.90;;;;;;5079592;28;20439;-66
2022/10/21 03:03:29;;;;;;;11.97;10.73;;;12.40;99.90;;;;;;5075924;28;20459;-66
2022/10/21 03:05:58;;;;;;;12.43;10.60;;;12.40;99.90;;;;;;5074941;28;20455;-68
2022/10/21 03:08:24;;;;;;;11.70;10.00;;;12.40;99.90;;;;;;5074116;28;20439;-67
2022/10/21 03:10:51;;;;;;;10.73;9.63;;;12.40;99.90;;;;;;5074098;28;20442;-67
2022/10/21 03:13:18;;;;;;;13.30;11.20;;;12.40;99.90;;;;;;5073622;28;20853;-67
2022/10/21 03:15:45;;;;;;;12.87;11.03;;;12.50;99.90;;;;;;5074150;28;20474;-67
2022/10/21 03:18:11;;;;;;;12.97;10.60;;;12.50;99.90;;;;;;5074766;28;20458;-67
2022/10/21 03:20:38;;;;;;;15.07;10.93;;;12.50;99.90;;;;;;5075480;28;20439;-67
2022/10/21 03:23:06;;;;;;;13.80;11.17;;;12.50;99.90;;;;;;5073894;28;20478;-67
2022/10/21 03:25:33;;;;;;;14.53;12.00;;;12.60;99.90;;;;;;5073904;28;20439;-67
2022/10/21 03:27:59;;;;;;;25.63;12.67;;;12.60;99.90;;;;;;5073751;28;20442;-67
2022/10/21 03:30:26;;;;;;;17.23;12.90;;;12.60;99.90;;;;;;5073733;28;20458;-67
2022/10/21 03:32:53;;;;;;;15.83;12.30;;;12.60;99.90;;;;;;5073639;28;20447;-67
2022/10/21 03:35:20;;;;;;;12.47;10.63;;;12.60;99.90;;;;;;5073235;28;20431;-67
2022/10/21 03:37:47;;;;;;;13.33;12.00;;;12.70;99.90;;;;;;5073699;28;20454;-67
2022/10/21 03:40:15;;;;;;;16.70;11.30;;;12.70;99.90;;;;;;5073526;28;20447;-67
2022/10/21 03:42:41;;;;;;;14.33;11.53;;;12.70;99.90;;;;;;5073306;28;20935;-68
2022/10/21 03:45:09;;;;;;;14.60;10.90;;;12.70;99.90;;;;;;5073384;28;20452;-68
2022/10/21 03:47:36;;;;;;;15.43;10.97;;;12.70;99.90;;;;;;5073180;28;20435;-67
2022/10/21 03:50:05;;;;;;;13.00;11.60;;;12.80;99.90;;;;;;5073624;28;20435;-67
2022/10/21 03:52:32;;;;;;;12.23;10.00;;;12.80;99.90;;;;;;5074088;28;20451;-67
2022/10/21 03:54:58;;;;;;;11.00;9.90;;;12.80;99.90;;;;;;5073465;28;20479;-67
2022/10/21 03:57:26;;;;;;;12.10;10.40;;;12.80;99.90;;;;;;5074524;28;20482;-67
2022/10/21 03:59:53;;;;;;;11.23;10.03;;;12.80;99.90;;;;;;5076051;28;20470;-69
2022/10/21 04:02:20;;;;;;;15.30;10.00;;;12.80;99.90;;;;;;5077184;28;20530;-67
2022/10/21 04:04:47;;;;;;;12.20;10.70;;;12.80;99.90;;;;;;5077822;28;20463;-68
2022/10/21 04:10:24;;;;;;;13.10;10.77;;;12.90;99.90;;;;;;5177316;27;20567;-68
2022/10/21 04:12:50;;;;;;;13.60;10.40;;;12.90;99.90;;;;;;5160953;27;20807;-68
2022/10/21 04:15:17;;;;;;;22.07;11.77;;;12.90;99.90;;;;;;5163401;27;20436;-68
2022/10/21 04:17:45;;;;;;;15.23;11.03;;;12.90;99.90;;;;;;5161432;27;20435;-68
2022/10/21 04:20:12;;;;;;;12.77;11.40;;;12.90;99.90;;;;;;5162134;27;20439;-67
2022/10/21 04:22:39;;;;;;;15.50;11.77;;;13.00;99.90;;;;;;5166297;27;20542;-70
2022/10/21 04:25:06;;;;;;;11.90;10.40;;;13.00;99.90;;;;;;5165777;27;20450;-66
2022/10/21 04:27:35;;;;;;;13.67;11.77;;;13.00;99.90;;;;;;5163956;27;20420;-69
2022/10/21 04:30:01;;;;;;;16.13;11.93;;;13.00;99.90;;;;;;5164770;27;20483;-68
2022/10/21 04:32:28;;;;;;;14.70;11.50;;;13.00;99.90;;;;;;5167442;27;20436;-68
2022/10/21 04:34:55;;;;;;;18.40;11.27;;;13.00;99.90;;;;;;5168216;27;20455;-69
2022/10/21 04:37:21;;;;;;;18.17;12.40;;;13.00;99.90;;;;;;5168624;27;20440;-68
2022/10/21 04:39:48;;;;;;;13.23;11.90;;;13.00;99.90;;;;;;5161473;27;20436;-67
2022/10/21 04:42:15;;;;;;;14.10;10.70;;;13.00;99.90;;;;;;5166093;27;20443;-68
2022/10/21 04:44:43;;;;;;;18.60;13.07;;;13.00;99.90;;;;;;5161470;27;20456;-68
2022/10/21 04:47:09;;;;;;;14.10;11.93;;;13.00;99.90;;;;;;5158504;27;20436;-68
2022/10/21 04:49:36;;;;;;;15.40;11.50;;;13.00;99.90;;;;;;5157733;27;20481;-68
2022/10/21 04:52:03;;;;;;;14.43;11.90;;;12.90;99.90;;;;;;5158454;27;20435;-65
2022/10/21 04:54:30;;;;;;;12.47;11.17;;;12.90;99.90;;;;;;5153270;22;20554;-68
2022/10/21 04:56:57;;;;;;;18.03;12.63;;;12.80;99.90;;;;;;5090783;28;20474;-66
2022/10/21 04:59:24;;;;;;;14.50;11.93;;;12.80;99.90;;;;;;5090789;28;20446;-67
2022/10/21 05:01:52;;;;;;;14.70;12.20;;;12.80;99.90;;;;;;5091225;28;20468;-67
2022/10/21 05:04:19;;;;;;;15.07;11.97;;;12.70;99.90;;;;;;5090551;28;20549;-68
2022/10/21 05:06:46;;;;;;;16.13;12.63;;;12.70;99.90;;;;;;5090490;28;20450;-67
2022/10/21 05:09:12;;;;;;;16.07;13.13;;;12.70;99.90;;;;;;5091048;28;20474;-68
2022/10/21 05:11:39;;;;;;;14.63;11.87;;;12.70;99.90;;;;;;5090326;28;20446;-68
2022/10/21 05:14:06;;;;;;;17.60;12.73;;;12.60;99.90;;;;;;5090294;28;20466;-67
2022/10/21 05:16:32;;;;;;;14.67;12.77;;;12.60;99.90;;;;;;5090206;28;20481;-67
2022/10/21 05:19:01;;;;;;;16.23;13.00;;;12.50;99.90;;;;;;5089785;28;20454;-67
2022/10/21 05:21:27;;;;;;;14.87;11.97;;;12.50;99.90;;;;;;5077624;28;20450;-68
2022/10/21 05:23:54;;;;;;;15.90;13.00;;;12.50;99.90;;;;;;5076001;28;20485;-67
2022/10/21 05:26:23;;;;;;;16.00;13.57;;;12.40;99.90;;;;;;5075258;28;20446;-69
2022/10/21 05:28:49;;;;;;;15.90;12.70;;;12.40;99.90;;;;;;5074750;28;20562;-69
2022/10/21 05:31:16;;;;;;;17.17;13.63;;;12.40;99.90;;;;;;5075873;28;20443;-68
2022/10/21 05:33:43;;;;;;;14.53;12.40;;;12.40;99.90;;;;;;5076066;28;20451;-67
2022/10/21 05:36:11;;;;;;;16.37;12.20;;;12.40;99.90;;;;;;5075852;28;20458;-68
2022/10/21 05:38:38;;;;;;;19.93;13.77;;;12.40;99.90;;;;;;5075793;28;20439;-69
2022/10/21 05:41:05;;;;;;;16.90;14.30;;;12.40;99.90;;;;;;5075826;28;20439;-68
2022/10/21 05:43:32;;;;;;;18.73;13.80;;;12.40;99.90;;;;;;5075628;28;20784;-67
2022/10/21 05:45:58;;;;;;;17.70;13.30;;;12.50;99.90;;;;;;5075809;28;20451;-68
2022/10/21 05:48:25;;;;;;;20.70;13.47;;;12.50;99.90;;;;;;5075495;28;20446;-68
2022/10/21 05:50:54;;;;;;;16.70;12.40;;;12.50;99.90;;;;;;5075586;28;20447;-67
2022/10/21 05:53:23;;;;;;;16.97;13.20;;;12.50;99.90;;;;;;5074929;28;20443;-67
2022/10/21 05:55:56;;;;;;;18.43;12.20;;;12.50;99.90;;;;;;5075502;28;20524;-67
2022/10/21 05:58:23;;;;;;;16.63;14.00;;;12.50;99.90;;;;;;5077322;28;20444;-69
2022/10/21 06:00:53;;;;;;;16.40;14.07;;;12.50;99.90;;;;;;5075743;28;21008;-68
2022/10/21 06:03:21;;;;;;;16.90;12.53;;;12.60;99.90;;;;;;5075691;28;20489;-67
2022/10/21 06:05:48;;;;;;;16.80;13.23;;;12.60;99.90;;;;;;5075561;28;20463;-68
2022/10/21 06:08:14;;;;;;;16.47;13.70;;;12.60;99.90;;;;;;5075191;28;20958;-68
2022/10/21 06:10:43;;;;;;;15.93;12.70;;;12.60;99.90;;;;;;5074499;28;20481;-68
2022/10/21 06:13:10;;;;;;;18.33;13.57;;;12.60;99.90;;;;;;5074806;28;20443;-67
2022/10/21 06:15:37;;;;;;;17.63;13.30;;;12.60;99.90;;;;;;5074968;28;20463;-68
2022/10/21 06:18:04;;;;;;;22.13;14.87;;;12.70;99.90;;;;;;5074893;28;20461;-62
2022/10/21 06:20:31;;;;;;;17.40;12.93;;;12.70;99.90;;;;;;5075049;28;20455;-61
2022/10/21 06:22:59;;;;;;;14.93;12.70;;;12.70;99.90;;;;;;5074814;28;20447;-62
2022/10/21 06:25:26;;;;;;;15.40;12.90;;;12.80;99.90;;;;;;5074948;28;20941;-62
2022/10/21 06:27:56;;;;;;;14.63;13.10;;;12.80;99.90;;;;;;5074941;28;20427;-62
2022/10/21 06:30:22;;;;;;;17.43;12.60;;;12.80;99.90;;;;;;5074594;28;20496;-63
2022/10/21 06:32:50;;;;;;;15.60;12.80;;;12.90;99.90;;;;;;5072426;28;20439;-63
2022/10/21 06:35:17;;;;;;;14.50;12.27;;;12.90;99.90;;;;;;5074914;28;20514;-63
2022/10/21 06:37:43;;;;;;;20.07;13.23;;;13.00;99.90;;;;;;5075314;28;20450;-63
2022/10/21 06:40:11;;;;;;;15.07;12.80;;;13.00;99.90;;;;;;5075514;28;20451;-64
2022/10/21 06:42:38;;;;;;;13.83;12.13;;;13.00;99.90;;;;;;5076821;28;20454;-63
2022/10/21 06:45:07;;;;;;;15.77;13.07;;;13.10;99.90;;;;;;5079201;28;20982;-64
2022/10/21 06:47:34;;;;;;;17.87;13.80;;;13.10;99.90;;;;;;5077870;28;20440;-65
2022/10/21 06:50:02;;;;;;;15.20;12.33;;;13.10;99.90;;;;;;5073835;28;20476;-63
2022/10/21 06:52:29;;;;;;;13.83;11.80;;;13.20;99.90;;;;;;5075769;28;20447;-63
2022/10/21 06:54:56;;;;;;;15.97;12.20;;;13.20;99.90;;;;;;5074302;28;20986;-63
2022/10/21 06:57:22;;;;;;;18.37;12.37;;;13.30;99.90;;;;;;5074865;28;20447;-64
2022/10/21 06:59:49;;;;;;;16.20;12.60;;;13.30;99.90;;;;;;5074697;28;20475;-64
2022/10/21 07:02:17;;;;;;;13.73;11.43;;;13.30;99.90;;;;;;5077831;28;20443;-61
2022/10/21 07:04:47;;;;;;;11.43;10.00;;;13.40;99.90;;;;;;5078171;28;20471;-63
2022/10/21 07:07:14;;;;;;;12.53;10.97;;;13.40;99.90;;;;;;5077732;28;20483;-63
2022/10/21 07:09:41;;;;;;;13.03;11.10;;;13.50;99.90;;;;;;5077143;28;20524;-63
2022/10/21 07:12:08;;;;;;;13.10;10.37;;;13.50;99.90;;;;;;5075223;28;20939;-62
2022/10/21 07:14:34;;;;;;;11.17;9.80;;;13.60;99.90;;;;;;5076515;28;20520;-67
2022/10/21 07:17:01;;;;;;;14.13;9.93;;;13.60;99.90;;;;;;5079787;28;20457;-67
2022/10/21 07:19:29;;;;;;;12.90;9.77;;;13.70;99.90;;;;;;5078115;28;20447;-69
2022/10/21 07:21:56;;;;;;;12.63;9.43;;;13.70;99.90;;;;;;5077125;28;20451;-69
2022/10/21 07:24:23;;;;;;;11.40;8.70;;;13.80;99.90;;;;;;5075244;28;20847;-69
2022/10/21 07:26:50;;;;;;;16.23;10.20;;;13.80;99.90;;;;;;5074189;28;20451;-69
2022/10/21 07:29:17;;;;;;;15.50;9.60;;;13.90;99.90;;;;;;5076008;28;20483;-68
2022/10/21 07:31:44;;;;;;;14.73;10.43;;;14.00;99.90;;;;;;5073480;28;20444;-70
2022/10/21 07:34:12;;;;;;;11.23;9.07;;;14.00;99.90;;;;;;5073736;28;20468;-69
2022/10/21 07:36:42;;;;;;;12.53;10.33;;;14.10;99.90;;;;;;5073758;28;20443;-69
2022/10/21 07:39:11;;;;;;;12.57;10.13;;;14.10;99.90;;;;;;5074324;28;20440;-69
2022/10/21 07:41:40;;;;;;;13.67;9.53;;;14.20;99.90;;;;;;5073663;28;20439;-68
2022/10/21 07:44:08;;;;;;;9.00;7.90;;;14.20;99.90;;;;;;5072922;28;20472;-63
2022/10/21 07:46:36;;;;;;;10.20;8.67;;;14.20;99.90;;;;;;5073792;28;20458;-64
2022/10/21 07:49:03;;;;;;;10.30;8.53;;;14.30;99.90;;;;;;5073458;28;20455;-67
2022/10/21 07:51:30;;;;;;;11.97;8.20;;;14.40;99.90;;;;;;5073251;28;20819;-65
2022/10/21 07:54:00;;;;;;;10.13;8.57;;;14.40;99.90;;;;;;5073383;28;20494;-65
2022/10/21 07:56:30;;;;;;;10.27;7.73;;;14.50;99.90;;;;;;5073649;28;20439;-65
2022/10/21 07:58:57;;;;;;;10.67;8.40;;;14.50;99.90;;;;;;5073401;28;20465;-67
2022/10/21 08:01:24;;;;;;;11.57;9.47;;;14.60;99.90;;;;;;5073123;28;20439;-63
2022/10/21 08:03:53;;;;;;;11.80;10.27;;;14.70;99.90;;;;;;5073086;28;20980;-65
2022/10/21 08:06:20;;;;;;;13.43;9.53;;;14.70;99.90;;;;;;5073537;28;20443;-65
2022/10/21 08:08:47;;;;;;;8.77;6.80;;;14.80;99.90;;;;;;5073569;28;20470;-64
2022/10/21 08:11:22;;;;;;;9.70;7.20;;;14.90;99.90;;;;;;5073502;28;20483;-64
2022/10/21 08:13:49;;;;;;;11.80;8.27;;;15.00;99.90;;;;;;5076065;28;20555;-64
2022/10/21 08:16:16;;;;;;;10.03;9.00;;;15.00;99.90;;;;;;5073759;28;20983;-64
2022/10/21 08:18:43;;;;;;;9.60;6.93;;;15.10;99.90;;;;;;5074428;28;20447;-64
2022/10/21 08:21:09;;;;;;;8.00;6.93;;;15.10;99.90;;;;;;5074093;28;20443;-64
2022/10/21 08:23:36;;;;;;;8.50;6.80;;;15.20;99.90;;;;;;5076018;28;20447;-64
2022/10/21 08:26:04;;;;;;;9.47;7.80;;;15.30;99.90;;;;;;5075531;28;20451;-65
2022/10/21 08:28:32;;;;;;;10.87;6.80;;;15.40;99.90;;;;;;5075334;28;20861;-67
2022/10/21 08:31:03;;;;;;;8.00;7.20;;;15.40;99.90;;;;;;5080034;28;20475;-63
2022/10/21 08:33:30;;;;;;;8.83;7.27;;;15.50;99.90;;;;;;5080415;28;20443;-63
2022/10/21 08:35:57;;;;;;;9.20;7.10;;;15.50;99.90;;;;;;5080438;28;20516;-64
2022/10/21 08:38:24;;;;;;;7.97;7.20;;;15.60;99.90;;;;;;5079961;28;20457;-64
2022/10/21 08:40:51;;;;;;;11.37;7.10;;;15.70;99.90;;;;;;5084718;28;20446;-68
2022/10/21 08:43:22;;;;;;;7.70;6.47;;;15.80;99.90;;;;;;5081489;28;20441;-67
2022/10/21 08:45:55;;;;;;;7.03;6.43;;;15.90;99.90;;;;;;5076698;28;20467;-68
2022/10/21 08:48:26;;;;;;;13.80;6.70;;;16.00;99.90;;;;;;5075571;28;20435;-65
2022/10/21 08:50:56;;;;;;;8.83;7.23;;;16.10;99.90;;;;;;5073758;28;20459;-67
2022/10/21 08:53:29;;;;;;;7.20;6.47;;;16.20;99.90;;;;;;5073379;28;20458;-65
2022/10/21 08:56:02;;;;;;;7.73;6.67;;;16.30;99.90;;;;;;5075210;28;20427;-69
2022/10/21 08:58:35;;;;;;;7.90;6.20;;;16.40;99.90;;;;;;5078241;28;20510;-68
2022/10/21 09:01:06;;;;;;;7.20;6.17;;;16.50;99.90;;;;;;5078136;28;21032;-69
2022/10/21 09:03:41;;;;;;;10.10;6.80;;;16.60;99.90;;;;;;5078278;28;20765;-67
2022/10/21 09:06:21;;;;;;;7.80;6.03;;;16.70;99.90;;;;;;5077756;28;20423;-66
2022/10/21 09:08:59;;;;;;;6.73;6.00;;;16.70;99.90;;;;;;5077307;28;20772;-67
2022/10/21 09:11:35;;;;;;;6.40;5.50;;;16.80;99.90;;;;;;5077470;28;20583;-66
2022/10/21 09:14:37;;;;;;;7.50;5.83;;;16.90;99.90;;;;;;5077030;28;20471;-66
2022/10/21 09:17:17;;;;;;;5.90;4.93;;;17.00;99.90;;;;;;5077214;28;20438;-67
2022/10/21 09:19:53;;;;;;;5.93;5.33;;;17.20;99.90;;;;;;5078523;28;20431;-68
2022/10/21 09:22:38;;;;;;;6.77;5.60;;;17.30;99.90;;;;;;5078503;28;20550;-68
2022/10/21 09:25:17;;;;;;;8.93;6.00;;;17.30;99.90;;;;;;5077407;28;20467;-67
2022/10/21 09:27:45;;;;;;;8.60;6.30;;;17.40;99.90;;;;;;5077497;28;20449;-67
2022/10/21 09:30:15;;;;;;;8.43;5.70;;;17.40;99.90;;;;;;5078080;28;20482;-70
2022/10/21 09:32:48;;;;;;;6.20;5.60;;;17.50;99.90;;;;;;5076751;28;20443;-67
2022/10/21 09:35:22;;;;;;;8.93;5.17;;;17.60;99.90;;;;;;5077357;28;20466;-65
2022/10/21 09:37:53;;;;;;;10.70;5.43;;;17.70;99.90;;;;;;5077437;28;20427;-64
2022/10/21 09:40:33;;;;;;;6.77;5.27;;;17.80;99.90;;;;;;5078441;28;20443;-63
2022/10/21 09:43:02;;;;;;;6.43;4.50;;;17.90;99.90;;;;;;5078666;28;20497;-66
2022/10/21 09:45:33;;;;;;;7.77;5.30;;;18.00;99.90;;;;;;5076967;28;20475;-68
2022/10/21 09:48:04;;;;;;;7.90;5.30;;;18.20;99.90;;;;;;5076055;28;20447;-68
2022/10/21 09:50:33;;;;;;;7.63;5.67;;;18.20;99.90;;;;;;5076510;28;20474;-68
2022/10/21 09:53:05;;;;;;;11.60;5.80;;;18.30;99.90;;;;;;5076786;28;20597;-65
2022/10/21 09:55:36;;;;;;;5.70;5.10;;;18.40;99.90;;;;;;5077555;28;20840;-67
2022/10/21 09:58:04;;;;;;;6.83;5.80;;;18.50;99.90;;;;;;5076549;28;20513;-67
2022/10/21 10:00:46;;;;;;;6.23;5.60;;;18.50;99.90;;;;;;5077727;28;20470;-67
2022/10/21 10:03:30;;;;;;;8.43;4.90;;;18.60;99.90;;;;;;5082720;28;20536;-67
2022/10/21 10:05:57;;;;;;;9.77;6.07;;;18.60;99.90;;;;;;5077083;28;20789;-66
2022/10/21 10:08:33;;;;;;;7.23;5.00;;;18.60;99.90;;;;;;5076341;28;20443;-65
2022/10/21 10:11:11;;;;;;;6.33;5.00;;;18.60;99.90;;;;;;5075549;28;21000;-64
2022/10/21 10:13:40;;;;;;;10.20;5.30;;;18.60;99.90;;;;;;5076200;28;20439;-64
2022/10/21 10:16:14;;;;;;;6.17;5.57;;;18.60;99.90;;;;;;5076798;28;20443;-66
2022/10/21 10:18:43;;;;;;;6.20;5.00;;;18.60;99.90;;;;;;5079143;28;20419;-66
2022/10/21 10:21:11;;;;;;;7.23;5.27;;;18.70;99.90;;;;;;5078334;28;20450;-65
2022/10/21 10:23:47;;;;;;;8.60;6.40;;;18.70;99.90;;;;;;5077445;28;20443;-65
2022/10/21 10:26:27;;;;;;;5.33;4.70;;;18.70;99.90;;;;;;5079023;28;20454;-63
2022/10/21 10:28:57;;;;;;;7.70;5.03;;;18.70;99.90;;;;;;5076935;28;20431;-65
2022/10/21 10:31:27;;;;;;;4.80;4.17;;;18.60;99.90;;;;;;5077159;28;20479;-65
2022/10/21 10:33:58;;;;;;;6.60;4.70;;;18.60;99.90;;;;;;5076677;28;20467;-66
2022/10/21 10:36:32;;;;;;;6.97;4.53;;;18.60;99.90;;;;;;5076867;28;20428;-64
2022/10/21 10:39:00;;;;;;;12.20;5.93;;;18.60;99.90;;;;;;5076482;28;20436;-64
2022/10/21 10:41:34;;;;;;;6.40;5.50;;;18.50;99.90;;;;;;5075029;28;20966;-64
2022/10/21 10:44:07;;;;;;;5.90;4.97;;;18.50;99.90;;;;;;5075829;28;20471;-64
2022/10/21 10:46:36;;;;;;;6.50;4.80;;;18.50;99.90;;;;;;5077182;28;20447;-65
2022/10/21 10:49:20;;;;;;;6.27;4.70;;;18.50;99.90;;;;;;5078822;28;20451;-64
2022/10/21 10:51:48;;;;;;;9.47;5.43;;;18.50;99.90;;;;;;5076130;28;20836;-64
2022/10/21 10:54:18;;;;;;;7.20;5.10;;;18.50;99.90;;;;;;5080537;28;20494;-66
2022/10/21 10:56:49;;;;;;;8.43;5.87;;;18.50;99.90;;;;;;5078151;28;20439;-66
2022/10/21 10:59:26;;;;;;;12.53;6.07;;;18.50;99.90;;;;;;5077889;28;20530;-63
2022/10/21 11:02:00;;;;;;;6.10;5.27;;;18.40;99.90;;;;;;5077968;28;20945;-65
2022/10/21 11:04:33;;;;;;;6.70;6.03;;;18.40;99.90;;;;;;5078824;28;20462;-65
2022/10/21 11:07:08;;;;;;;7.47;5.50;;;18.30;99.90;;;;;;5101006;22;20487;-60
2022/10/21 11:09:36;;;;;;;7.80;5.27;;;18.30;99.90;;;;;;5074296;28;20474;-61
2022/10/21 11:12:11;;;;;;;9.27;5.60;;;18.30;99.90;;;;;;5074128;28;20882;-60
2022/10/21 11:14:38;;;;;;;6.27;5.67;;;18.20;99.90;;;;;;5075763;28;20921;-59
2022/10/21 11:17:10;;;;;;;7.13;5.90;;;18.10;99.90;;;;;;5075131;28;20463;-60
2022/10/21 11:19:45;;;;;;;10.80;6.30;;;18.10;99.90;;;;;;5073962;28;20454;-61
2022/10/21 11:22:19;;;;;;;8.93;5.57;;;18.10;99.90;;;;;;5073556;28;20419;-58
2022/10/21 11:24:55;;;;;;;9.47;6.20;;;18.00;99.90;;;;;;5073451;28;20435;-60
2022/10/21 11:27:43;;;;;;;6.60;5.17;;;18.00;99.90;;;;;;5074507;28;20470;-61
2022/10/21 11:30:13;;;;;;;9.63;5.33;;;17.90;99.90;;;;;;5074365;28;20435;-59
2022/10/21 11:32:59;;;;;;;8.70;5.53;;;17.90;99.90;;;;;;5073447;28;20911;-60
2022/10/21 11:35:38;;;;;;;6.67;4.83;;;17.90;99.90;;;;;;5073703;28;20808;-60
2022/10/21 11:38:31;;;;;;;7.53;4.83;;;18.00;99.90;;;;;;5073730;28;20427;-60
2022/10/21 11:41:07;;;;;;;10.80;5.70;;;18.00;99.90;;;;;;5073822;28;20420;-59
2022/10/21 11:43:45;;;;;;;6.70;5.53;;;18.00;99.90;;;;;;5073925;28;20403;-60
2022/10/21 11:46:18;;;;;;;8.17;5.63;;;17.90;99.90;;;;;;5073789;28;20530;-61
2022/10/21 11:49:05;;;;;;;8.57;5.40;;;17.90;99.90;;;;;;5073931;28;20430;-60
2022/10/21 11:51:43;;;;;;;7.40;5.97;;;18.00;99.90;;;;;;5073820;28;20478;-60
2022/10/21 11:54:57;;;;;;;7.00;5.30;;;18.00;99.90;;;;;;5073438;28;20455;-60
2022/10/21 11:57:32;;;;;;;6.63;6.03;;;18.10;99.90;;;;;;5030809;28;20476;-60
2022/10/21 12:00:06;;;;;;;6.77;5.43;;;18.00;99.90;;;;;;5031137;28;20459;-60
2022/10/21 12:02:42;;;;;;;10.03;6.13;;;18.00;99.90;;;;;;5053830;28;20444;-59
2022/10/21 12:05:17;;;;;;;9.77;6.30;;;18.00;99.90;;;;;;5072883;28;20794;-60
2022/10/21 12:08:01;;;;;;;7.87;5.43;;;18.00;99.90;;;;;;5073542;28;20517;-61
2022/10/21 12:10:34;;;;;;;8.30;5.70;;;17.90;99.90;;;;;;5073103;28;20427;-62
2022/10/21 12:13:05;;;;;;;6.33;5.73;;;17.90;99.90;;;;;;5073306;28;20443;-60
2022/10/21 12:15:40;;;;;;;10.50;6.83;;;17.90;99.90;;;;;;5072982;28;20469;-60
2022/10/21 12:18:13;;;;;;;6.43;5.83;;;17.90;99.90;;;;;;5073361;28;20431;-60
2022/10/21 12:20:39;;;;;;;7.53;6.30;;;17.90;99.90;;;;;;5073335;28;20438;-61
2022/10/21 12:23:10;;;;;;;6.63;5.97;;;17.80;99.90;;;;;;5072681;28;20522;-61
2022/10/21 12:25:43;;;;;;;6.97;5.57;;;17.70;99.90;;;;;;5072903;28;20557;-59
2022/10/21 12:28:17;;;;;;;9.20;5.50;;;17.70;99.90;;;;;;5073075;28;20416;-60
2022/10/21 12:30:53;;;;;;;11.03;7.77;;;17.60;99.90;;;;;;5074712;28;20527;-59
2022/10/21 12:33:30;;;;;;;9.07;6.87;;;17.60;99.90;;;;;;5078017;28;20446;-61
2022/10/21 12:36:16;;;;;;;9.97;6.17;;;17.50;99.90;;;;;;5078975;28;20472;-59
2022/10/21 12:38:48;;;;;;;7.93;7.13;;;17.40;99.90;;;;;;5082859;28;20438;-60
2022/10/21 12:41:31;;;;;;;9.30;6.07;;;17.40;99.90;;;;;;5081182;28;20483;-62
2022/10/21 12:44:04;;;;;;;8.40;6.60;;;17.40;99.90;;;;;;5079054;28;20439;-59
2022/10/21 12:46:36;;;;;;;7.67;6.40;;;17.40;99.90;;;;;;5078750;28;20483;-60
2022/10/21 12:49:07;;;;;;;13.47;6.40;;;17.40;99.90;;;;;;5078277;28;20427;-61
2022/10/21 12:51:35;;;;;;;10.10;6.73;;;17.40;99.90;;;;;;5077696;28;20474;-61
2022/10/21 12:54:08;;;;;;;10.23;7.00;;;17.40;99.90;;;;;;5076914;28;20450;-59